createdAt,value
2022-10-22T00:00:14.680Z,11.68
2022-10-22T00:03:00.706Z,11.63
2022-10-22T00:05:47.917Z,11.60
2022-10-22T00:08:34.305Z,11.64
2022-10-22T00:11:20.577Z,11.58
2022-10-22T00:14:06.974Z,11.52
2022-10-22T00:16:53.025Z,11.52
2022-10-22T00:19:39.676Z,11.51
2022-10-22T00:22:25.544Z,11.47
2022-10-22T00:25:11.470Z,11.43
2022-10-22T00:27:57.455Z,11.41
2022-10-22T00:30:43.524Z,11.39
2022-10-22T00:33:30.182Z,11.39
2022-10-22T00:36:16.975Z,11.36
2022-10-22T00:39:03.318Z,11.34
2022-10-22T00:41:51.050Z,11.29
2022-10-22T00:45:10.892Z,11.30
2022-10-22T00:48:06.965Z,11.29
2022-10-22T00:50:58.171Z,11.30
2022-10-22T00:53:49.335Z,11.29
2022-10-22T00:56:34.958Z,11.27
2022-10-22T00:59:20.952Z,11.26
2022-10-22T01:02:07.073Z,11.12
2022-10-22T01:04:53.166Z,11.22
2022-10-22T01:07:43.576Z,11.25
2022-10-22T01:10:56.109Z,11.13
2022-10-22T01:14:12.631Z,11.13
2022-10-22T01:17:27.103Z,11.05
2022-10-22T01:20:16.184Z,11.15
2022-10-22T01:23:27.578Z,11.11
2022-10-22T01:26:35.195Z,11.07
2022-10-22T01:29:21.190Z,11.15
2022-10-22T01:32:14.357Z,11.06
2022-10-22T01:35:03.209Z,11.12
2022-10-22T01:38:01.632Z,10.98
2022-10-22T01:40:48.368Z,11.07
2022-10-22T01:43:34.250Z,11.07
2022-10-22T01:46:21.642Z,11.08
2022-10-22T01:49:26.153Z,11.11
2022-10-22T01:52:12.264Z,11.12
2022-10-22T01:55:08.122Z,11.07
2022-10-22T01:58:05.920Z,11.05
2022-10-22T02:01:20.835Z,11.07
2022-10-22T02:04:28.801Z,11.02
2022-10-22T02:07:20.127Z,11.01
2022-10-22T02:10:08.164Z,11.03
2022-10-22T02:12:56.116Z,11.01
2022-10-22T02:15:44.266Z,10.98
2022-10-22T02:18:35.275Z,10.97
2022-10-22T02:21:23.696Z,10.96
2022-10-22T02:24:09.596Z,10.94
2022-10-22T02:27:07.652Z,10.88
2022-10-22T02:30:01.991Z,10.88
2022-10-22T02:32:53.648Z,10.77
2022-10-22T02:35:41.011Z,10.87
2022-10-22T02:38:27.562Z,10.90
2022-10-22T02:41:13.809Z,10.80
2022-10-22T02:44:02.198Z,10.84
2022-10-22T02:46:48.715Z,10.84
2022-10-22T02:49:34.970Z,10.85
2022-10-22T02:52:20.868Z,10.81
2022-10-22T02:55:07.390Z,10.81
2022-10-22T02:57:53.150Z,10.76
2022-10-22T03:00:39.155Z,10.75
2022-10-22T03:03:24.957Z,10.76
2022-10-22T03:06:11.131Z,10.68
2022-10-22T03:08:57.142Z,10.65
2022-10-22T03:11:43.009Z,10.69
2022-10-22T03:14:28.821Z,10.70
2022-10-22T03:17:14.847Z,10.68
2022-10-22T03:20:01.034Z,10.70
2022-10-22T03:22:46.947Z,10.70
2022-10-22T03:25:34.638Z,10.67
2022-10-22T03:28:20.836Z,10.72
2022-10-22T03:31:07.382Z,10.64
2022-10-22T03:33:53.262Z,10.62
2022-10-22T03:36:40.286Z,10.65
2022-10-22T03:39:28.090Z,10.64
2022-10-22T03:42:14.221Z,10.65
2022-10-22T03:45:00.267Z,10.58
2022-10-22T03:47:46.281Z,10.56
2022-10-22T03:50:32.113Z,10.55
2022-10-22T03:53:17.930Z,10.57
2022-10-22T03:56:08.279Z,10.52
2022-10-22T03:58:57.584Z,10.52
2022-10-22T04:01:43.553Z,10.49
2022-10-22T04:04:29.560Z,10.50
2022-10-22T04:07:15.308Z,10.49
2022-10-22T04:10:01.387Z,10.48
2022-10-22T04:12:48.420Z,10.40
2022-10-22T04:15:34.419Z,10.45
2022-10-22T04:18:21.391Z,10.46
2022-10-22T04:21:09.238Z,10.43
2022-10-22T04:23:55.117Z,10.44
2022-10-22T04:26:41.171Z,10.40
2022-10-22T04:29:27.433Z,10.40
2022-10-22T04:32:13.208Z,10.43
2022-10-22T04:34:59.024Z,10.43
2022-10-22T04:37:45.113Z,10.41
2022-10-22T04:40:30.977Z,10.35
2022-10-22T04:43:16.922Z,10.42
2022-10-22T04:46:02.877Z,10.40
2022-10-22T04:48:49.183Z,10.45
2022-10-22T04:51:35.136Z,10.43
2022-10-22T04:54:21.260Z,10.41
2022-10-22T04:57:07.333Z,10.44
2022-10-22T04:59:53.293Z,10.50
2022-10-22T05:02:39.253Z,10.47
2022-10-22T05:05:25.269Z,10.45
2022-10-22T05:08:11.200Z,10.46
2022-10-22T05:10:57.165Z,10.43
2022-10-22T05:13:43.524Z,10.43
2022-10-22T05:16:30.078Z,10.46
2022-10-22T05:19:36.490Z,10.40
2022-10-22T05:22:22.421Z,10.34
2022-10-22T05:25:08.649Z,10.41
2022-10-22T05:27:57.210Z,10.35
2022-10-22T05:30:54.321Z,10.38
2022-10-22T05:33:41.228Z,10.33
2022-10-22T05:36:27.211Z,10.47
2022-10-22T05:39:13.565Z,10.48
2022-10-22T05:41:59.266Z,10.47
2022-10-22T05:44:45.201Z,10.56
2022-10-22T05:47:31.042Z,10.56
2022-10-22T05:50:16.855Z,10.59
2022-10-22T05:53:03.561Z,10.54
2022-10-22T05:55:49.733Z,10.63
2022-10-22T05:58:36.879Z,10.77
2022-10-22T06:01:31.586Z,10.76
2022-10-22T06:04:20.944Z,10.86
2022-10-22T06:07:11.043Z,10.88
2022-10-22T06:09:57.317Z,10.94
2022-10-22T06:12:43.217Z,10.93
2022-10-22T06:15:29.325Z,10.94
2022-10-22T06:18:15.616Z,10.96
2022-10-22T06:21:09.852Z,10.96
2022-10-22T06:23:57.029Z,11.06
2022-10-22T06:26:43.141Z,10.98
2022-10-22T06:29:29.341Z,11.06
2022-10-22T06:32:15.158Z,11.11
2022-10-22T06:35:01.124Z,11.15
2022-10-22T06:37:47.604Z,11.18
2022-10-22T06:40:33.925Z,11.19
2022-10-22T06:43:19.916Z,11.28
2022-10-22T06:46:08.813Z,11.23
2022-10-22T06:49:00.613Z,11.31
2022-10-22T06:51:50.539Z,11.16
2022-10-22T06:54:36.895Z,11.50
2022-10-22T06:57:23.135Z,11.45
2022-10-22T07:00:09.533Z,11.49
2022-10-22T07:02:57.791Z,11.62
2022-10-22T07:05:46.031Z,11.57
2022-10-22T07:08:32.245Z,11.68
2022-10-22T07:11:27.019Z,11.78
2022-10-22T07:14:13.995Z,11.87
2022-10-22T07:17:00.283Z,11.87
2022-10-22T07:19:49.633Z,11.99
2022-10-22T07:22:37.376Z,12.05
2022-10-22T07:25:23.780Z,12.10
2022-10-22T07:28:09.879Z,12.23
2022-10-22T07:30:55.818Z,12.26
2022-10-22T07:33:45.365Z,12.33
2022-10-22T07:36:31.655Z,12.29
2022-10-22T07:39:18.026Z,12.41
2022-10-22T07:42:04.036Z,12.38
2022-10-22T07:44:50.255Z,12.50
2022-10-22T07:47:36.502Z,12.54
2022-10-22T07:50:22.805Z,12.65
2022-10-22T07:53:09.061Z,12.68
2022-10-22T07:55:55.350Z,12.80
2022-10-22T07:58:42.140Z,12.86
2022-10-22T08:01:28.946Z,13.02
2022-10-22T08:04:18.247Z,13.02
2022-10-22T08:07:04.798Z,13.08
2022-10-22T08:10:21.940Z,13.13
2022-10-22T08:13:08.411Z,13.40
2022-10-22T08:15:57.331Z,13.45
2022-10-22T08:18:43.796Z,13.42
2022-10-22T08:21:30.040Z,13.64
2022-10-22T08:24:16.305Z,13.67
2022-10-22T08:27:02.319Z,13.87
2022-10-22T08:29:48.227Z,13.93
2022-10-22T08:32:34.136Z,14.03
2022-10-22T08:35:20.454Z,13.97
2022-10-22T08:38:06.370Z,14.23
2022-10-22T08:40:54.693Z,14.35
2022-10-22T08:44:09.064Z,14.35
2022-10-22T08:47:10.257Z,14.44
2022-10-22T08:49:57.194Z,14.49
2022-10-22T08:52:45.062Z,14.73
2022-10-22T08:55:35.162Z,14.82
2022-10-22T08:58:38.695Z,14.72
2022-10-22T09:01:46.478Z,14.93
2022-10-22T09:04:47.965Z,14.95
2022-10-22T09:07:34.384Z,15.20
2022-10-22T09:10:22.725Z,15.38
2022-10-22T09:13:11.704Z,15.44
2022-10-22T09:16:01.549Z,15.57
2022-10-22T09:19:12.246Z,15.61
2022-10-22T09:22:29.069Z,15.77
2022-10-22T09:25:21.446Z,15.83
2022-10-22T09:28:09.522Z,15.93
2022-10-22T09:30:55.377Z,16.10
2022-10-22T09:33:43.852Z,16.27
2022-10-22T09:36:30.120Z,16.42
2022-10-22T09:39:32.297Z,16.43
2022-10-22T09:42:20.758Z,16.53
2022-10-22T09:45:07.189Z,16.77
2022-10-22T09:48:10.740Z,16.87
2022-10-22T09:51:25.976Z,16.79
2022-10-22T09:54:19.349Z,16.99
2022-10-22T09:57:16.688Z,17.14
2022-10-22T10:00:02.523Z,17.27
2022-10-22T10:02:59.311Z,17.34
2022-10-22T10:05:49.373Z,17.61
2022-10-22T10:08:35.354Z,17.74
2022-10-22T10:11:29.432Z,17.81
2022-10-22T10:14:34.791Z,17.90
2022-10-22T10:17:45.460Z,18.02
2022-10-22T10:20:54.477Z,18.05
2022-10-22T10:23:55.643Z,18.26
2022-10-22T10:27:03.213Z,18.29
2022-10-22T10:29:52.794Z,18.32
2022-10-22T10:32:51.079Z,18.50
2022-10-22T10:35:43.555Z,18.60
2022-10-22T10:38:35.866Z,18.56
2022-10-22T10:41:41.609Z,18.76
2022-10-22T10:44:36.829Z,18.97
2022-10-22T10:47:41.475Z,19.04
2022-10-22T10:50:39.598Z,19.13
2022-10-22T10:53:58.805Z,19.20
2022-10-22T10:56:47.982Z,19.39
2022-10-22T10:59:49.920Z,19.38
2022-10-22T11:02:46.606Z,19.50
2022-10-22T11:05:48.930Z,19.50
2022-10-22T11:08:38.932Z,19.71
2022-10-22T11:11:44.308Z,19.68
2022-10-22T11:14:50.898Z,19.79
2022-10-22T11:17:41.492Z,19.95
2022-10-22T11:20:57.895Z,19.95
2022-10-22T11:24:13.022Z,20.06
2022-10-22T11:27:27.326Z,20.10
2022-10-22T11:30:22.047Z,20.15
2022-10-22T11:33:12.056Z,20.25
2022-10-22T11:35:58.131Z,20.31
2022-10-22T11:38:44.357Z,20.41
2022-10-22T11:41:32.696Z,20.45
2022-10-22T11:44:23.689Z,20.56
2022-10-22T11:47:18.174Z,20.62
2022-10-22T11:50:25.427Z,20.63
2022-10-22T11:53:15.361Z,20.77
2022-10-22T11:56:07.503Z,20.85
2022-10-22T11:58:55.113Z,20.93
2022-10-22T12:01:42.708Z,20.90
2022-10-22T12:04:42.299Z,20.96
2022-10-22T12:07:41.513Z,21.02
2022-10-22T12:10:30.594Z,21.05
2022-10-22T12:13:28.891Z,20.96
2022-10-22T12:16:15.508Z,21.17
2022-10-22T12:19:15.731Z,21.18
2022-10-22T12:22:08.012Z,21.15
2022-10-22T12:24:57.245Z,21.35
2022-10-22T12:27:43.543Z,21.35
2022-10-22T12:30:32.027Z,21.45
2022-10-22T12:33:23.230Z,21.55
2022-10-22T12:36:17.993Z,21.53
2022-10-22T12:39:12.089Z,21.64
2022-10-22T12:41:58.185Z,21.72
2022-10-22T12:44:44.861Z,21.92
2022-10-22T12:47:31.003Z,21.94
2022-10-22T12:50:22.782Z,22.01
2022-10-22T12:53:17.905Z,22.00
2022-10-22T12:56:12.546Z,22.05
2022-10-22T12:59:01.560Z,22.07
2022-10-22T13:01:48.972Z,22.13
2022-10-22T13:04:36.999Z,22.15
2022-10-22T13:07:43.502Z,21.95
2022-10-22T13:10:39.325Z,22.02
2022-10-22T13:13:42.651Z,21.91
2022-10-22T13:16:30.203Z,21.84
2022-10-22T13:19:42.676Z,21.73
2022-10-22T13:22:31.722Z,21.71
2022-10-22T13:25:19.569Z,21.64
2022-10-22T13:28:15.464Z,21.51
2022-10-22T13:31:10.347Z,21.44
2022-10-22T13:33:59.193Z,21.43
2022-10-22T13:36:46.965Z,21.31
2022-10-22T13:39:35.293Z,21.27
2022-10-22T13:42:21.385Z,21.18
2022-10-22T13:45:07.693Z,21.12
2022-10-22T13:47:54.491Z,21.09
2022-10-22T13:50:40.606Z,21.05
2022-10-22T13:53:28.036Z,21.00
2022-10-22T13:56:15.963Z,20.96
2022-10-22T13:59:01.935Z,20.91
2022-10-22T14:01:47.948Z,20.79
2022-10-22T14:04:35.963Z,20.79
2022-10-22T14:07:22.290Z,20.71
2022-10-22T14:10:18.341Z,20.67
2022-10-22T14:13:07.709Z,20.67
2022-10-22T14:15:53.982Z,20.62
2022-10-22T14:18:39.948Z,20.59
2022-10-22T14:21:26.216Z,20.62
2022-10-22T14:24:13.387Z,20.57
2022-10-22T14:26:59.736Z,20.59
2022-10-22T14:29:46.028Z,20.59
2022-10-22T14:32:32.317Z,20.55
2022-10-22T14:35:23.937Z,20.55
2022-10-22T14:38:10.357Z,20.51
2022-10-22T14:40:56.720Z,20.47
2022-10-22T14:43:42.838Z,20.47
2022-10-22T14:46:29.125Z,20.42
2022-10-22T14:49:15.275Z,20.43
2022-10-22T14:52:01.180Z,20.39
2022-10-22T14:54:48.607Z,20.37
2022-10-22T14:57:34.719Z,20.33
2022-10-22T15:00:21.294Z,20.24
2022-10-22T15:03:07.065Z,20.27
2022-10-22T15:05:54.083Z,20.18
2022-10-22T15:08:40.063Z,20.17
2022-10-22T15:11:26.854Z,20.11
2022-10-22T15:14:12.753Z,20.08
2022-10-22T15:16:59.681Z,20.05
2022-10-22T15:19:45.749Z,20.04
2022-10-22T15:22:35.198Z,19.97
2022-10-22T15:25:21.254Z,19.84
2022-10-22T15:28:09.896Z,19.85
2022-10-22T15:30:58.497Z,19.79
2022-10-22T15:33:44.666Z,19.77
2022-10-22T15:36:30.607Z,19.67
2022-10-22T15:39:16.569Z,19.64
2022-10-22T15:42:02.707Z,19.59
2022-10-22T15:44:48.568Z,19.51
2022-10-22T15:47:34.762Z,19.33
2022-10-22T15:50:20.945Z,19.37
2022-10-22T15:53:06.880Z,19.32
2022-10-22T15:55:55.324Z,19.28
2022-10-22T15:58:41.704Z,19.14
2022-10-22T16:01:27.753Z,19.13
2022-10-22T16:04:14.273Z,19.06
2022-10-22T16:07:00.201Z,18.98
2022-10-22T16:09:46.504Z,18.91
2022-10-22T16:12:32.736Z,18.86
2022-10-22T16:15:18.540Z,18.76
2022-10-22T16:18:04.673Z,18.74
2022-10-22T16:20:51.157Z,18.73
2022-10-22T16:23:37.236Z,18.60
2022-10-22T16:26:23.179Z,18.55
2022-10-22T16:29:11.474Z,18.48
2022-10-22T16:31:57.419Z,18.41
2022-10-22T16:34:43.332Z,18.34
2022-10-22T16:37:29.510Z,18.23
2022-10-22T16:40:15.708Z,18.24
2022-10-22T16:43:01.898Z,18.23
2022-10-22T16:45:51.162Z,18.15
2022-10-22T16:48:42.224Z,18.10
2022-10-22T16:51:28.738Z,18.02
2022-10-22T16:54:15.748Z,18.01
2022-10-22T16:57:01.864Z,17.94
2022-10-22T16:59:47.921Z,17.86
2022-10-22T17:02:35.327Z,17.81
2022-10-22T17:05:21.799Z,17.66
2022-10-22T17:08:07.905Z,17.72
2022-10-22T17:10:53.807Z,17.62
2022-10-22T17:13:43.725Z,17.53
2022-10-22T17:16:29.766Z,17.51
2022-10-22T17:19:16.408Z,17.50
2022-10-22T17:22:02.393Z,17.42
2022-10-22T17:25:24.805Z,17.22
2022-10-22T17:28:11.653Z,17.29
2022-10-22T17:31:18.070Z,17.19
2022-10-22T17:34:06.905Z,17.12
2022-10-22T17:36:53.449Z,17.10
2022-10-22T17:39:39.590Z,17.06
2022-10-22T17:42:25.543Z,17.02
2022-10-22T17:45:11.824Z,17.00
2022-10-22T17:47:57.838Z,16.81
2022-10-22T17:50:48.209Z,16.79
2022-10-22T17:53:38.752Z,16.83
2022-10-22T17:56:27.410Z,16.81
2022-10-22T17:59:16.205Z,16.78
2022-10-22T18:02:03.247Z,16.68
2022-10-22T18:04:52.626Z,16.54
2022-10-22T18:07:38.460Z,16.56
2022-10-22T18:10:24.691Z,16.57
2022-10-22T18:13:11.033Z,16.52
2022-10-22T18:15:57.436Z,16.51
2022-10-22T18:18:46.139Z,16.44
2022-10-22T18:21:31.979Z,16.39
2022-10-22T18:24:18.769Z,16.33
2022-10-22T18:27:05.182Z,16.23
2022-10-22T18:29:51.168Z,16.25
2022-10-22T18:32:37.289Z,16.13
2022-10-22T18:35:38.610Z,16.12
2022-10-22T18:38:25.347Z,16.15
2022-10-22T18:41:14.227Z,15.96
2022-10-22T18:44:02.593Z,16.01
2022-10-22T18:46:48.630Z,15.98
2022-10-22T18:49:34.732Z,15.96
2022-10-22T18:52:20.933Z,15.85
2022-10-22T18:55:07.297Z,15.87
2022-10-22T18:57:53.488Z,15.80
2022-10-22T19:00:39.540Z,15.78
2022-10-22T19:03:25.699Z,15.73
2022-10-22T19:06:17.955Z,15.70
2022-10-22T19:09:04.607Z,15.51
2022-10-22T19:11:50.636Z,15.55
2022-10-22T19:14:36.625Z,15.50
2022-10-22T19:17:23.164Z,15.50
2022-10-22T19:20:09.809Z,15.45
2022-10-22T19:22:56.900Z,15.40
2022-10-22T19:25:42.775Z,15.43
2022-10-22T19:28:28.822Z,15.35
2022-10-22T19:31:19.450Z,15.33
2022-10-22T19:34:05.492Z,15.27
2022-10-22T19:36:51.901Z,15.28
2022-10-22T19:39:38.570Z,15.20
2022-10-22T19:42:25.181Z,15.21
2022-10-22T19:45:11.481Z,15.13
2022-10-22T19:47:57.757Z,15.16
2022-10-22T19:50:43.766Z,15.03
2022-10-22T19:53:30.907Z,14.96
2022-10-22T19:56:19.883Z,15.07
2022-10-22T19:59:06.230Z,15.01
2022-10-22T20:01:52.272Z,15.00
2022-10-22T20:04:38.219Z,14.97
2022-10-22T20:07:24.303Z,14.90
2022-10-22T20:10:12.028Z,14.83
2022-10-22T20:12:58.516Z,14.89
2022-10-22T20:15:48.700Z,14.85
2022-10-22T20:18:34.784Z,14.85
2022-10-22T20:21:22.016Z,14.80
2022-10-22T20:24:08.352Z,14.77
2022-10-22T20:26:54.551Z,14.79
2022-10-22T20:29:40.767Z,14.75
2022-10-22T20:32:28.003Z,14.69
2022-10-22T20:35:14.963Z,14.65
2022-10-22T20:38:01.091Z,14.64
2022-10-22T20:40:47.215Z,14.58
2022-10-22T20:43:33.972Z,14.55
2022-10-22T20:46:24.125Z,14.54
2022-10-22T20:49:12.313Z,14.41
2022-10-22T20:51:59.164Z,14.41
2022-10-22T20:54:45.873Z,14.42
2022-10-22T20:57:32.312Z,14.37
2022-10-22T21:00:18.541Z,14.29
2022-10-22T21:03:04.700Z,14.27
2022-10-22T21:05:50.764Z,14.27
2022-10-22T21:08:36.744Z,14.27
2022-10-22T21:11:23.424Z,14.14
2022-10-22T21:14:11.154Z,14.10
2022-10-22T21:16:57.525Z,14.01
2022-10-22T21:19:43.547Z,14.03
2022-10-22T21:22:29.545Z,13.93
2022-10-22T21:25:15.911Z,14.01
2022-10-22T21:28:02.165Z,13.94
2022-10-22T21:30:48.074Z,13.93
2022-10-22T21:33:38.276Z,13.88
2022-10-22T21:36:25.107Z,13.88
2022-10-22T21:39:12.716Z,13.85
2022-10-22T21:41:58.682Z,13.81
2022-10-22T21:44:44.881Z,13.76
2022-10-22T21:47:30.968Z,13.77
2022-10-22T21:50:17.245Z,13.74
2022-10-22T21:53:03.146Z,13.69
2022-10-22T21:55:49.360Z,13.70
2022-10-22T21:58:36.298Z,13.59
2022-10-22T22:01:22.832Z,13.64
2022-10-22T22:04:09.016Z,13.55
2022-10-22T22:06:55.091Z,13.53
2022-10-22T22:09:40.877Z,13.47
2022-10-22T22:12:26.924Z,13.44
2022-10-22T22:15:13.447Z,13.37
2022-10-22T22:17:59.510Z,13.38
2022-10-22T22:20:45.500Z,13.38
2022-10-22T22:23:31.711Z,13.24
2022-10-22T22:26:25.316Z,13.29
2022-10-22T22:29:14.516Z,13.29
2022-10-22T22:32:00.419Z,13.25
2022-10-22T22:34:48.684Z,13.22
2022-10-22T22:37:34.560Z,13.19
2022-10-22T22:40:20.433Z,13.19
2022-10-22T22:43:06.450Z,12.87
2022-10-22T22:46:07.831Z,12.90
2022-10-22T22:48:53.896Z,12.94
2022-10-22T22:51:39.660Z,12.89
2022-10-22T22:54:25.605Z,12.90
2022-10-22T22:57:11.830Z,12.83
2022-10-22T22:59:57.641Z,12.92
2022-10-22T23:02:43.972Z,12.85
2022-10-22T23:05:30.613Z,12.88
2022-10-22T23:08:16.413Z,12.88
2022-10-22T23:11:10.609Z,12.89
2022-10-22T23:14:01.956Z,12.89
2022-10-22T23:16:50.149Z,12.81
2022-10-22T23:19:36.281Z,12.90
2022-10-22T23:22:22.062Z,12.88
2022-10-22T23:25:08.337Z,12.93
2022-10-22T23:27:54.976Z,12.95
2022-10-22T23:30:44.401Z,12.89
2022-10-22T23:33:31.054Z,12.86
2022-10-22T23:36:17.411Z,12.87
2022-10-22T23:39:06.252Z,12.91
2022-10-22T23:41:53.247Z,12.87
2022-10-22T23:44:39.118Z,12.87
2022-10-22T23:47:25.128Z,12.87
2022-10-22T23:50:13.052Z,12.85
2022-10-22T23:52:59.288Z,12.81
2022-10-22T23:55:45.381Z,12.79
2022-10-22T23:58:31.493Z,12.77
